Nearby METAR Reports

 

KSWO - Stillwater, Oklahoma, USA
Distance from station: S 17mi, 28km
Updated: Fri, 06-21-2024 4:53am CDT
Clear
Clear
 Wind from SSE
Wind: SSE 8 mph, 13 km/h
Temperature: 77°F, 25°C
Dew Point: 73°F, 23°C
Humidity: 89%
Barometer: 30.17 inHg, 1021.7 hPa
Clouds: Clear
Visibility: 10 miles, 16 km
2024/06/21 09:53 KSWO 210953Z AUTO 16007KT 10SM CLR 25/23 A3017 RMK AO2 SLP204 T02500228
KCFV - Coffeyville, Kansas, USA
Distance from station: ENE 93mi, 150km
Updated: Fri, 06-21-2024 4:52am CDT
Overcast
Overcast
 Wind from SSE
Wind: SSE 7 mph, 11 km/h
Temperature: 77°F, 25°C
Dew Point: 70°F, 21°C
Humidity: 79%
Barometer: 30.18 inHg, 1022 hPa
Clouds: Overcast
Visibility: 10 miles, 16 km
Cloud details: Few Clouds 8000 ft
Overcast 9500 ft
2024/06/21 09:52 KCFV 210952Z AUTO 16006KT 10SM FEW080 OVC095 25/21 A3018 RMK AO2 SLP210 T02500206
KIDP - Independence, Kansas, USA
Distance from station: NE 86mi, 138km
Updated: Fri, 06-21-2024 5:15am CDT
Overcast
Overcast
 Wind from SSE
Wind: SSE 7 mph, 11 km/h
Temperature: 75°F, 24°C
Dew Point: 72°F, 22°C
Humidity: 89%
Barometer: 30.19 inHg, 1022.4 hPa
Clouds: Overcast
Visibility: 10 miles, 16 km
Cloud details: Overcast 9000 ft
2024/06/21 10:15 KIDP 211015Z AUTO 16006KT 10SM OVC090 24/22 A3019 RMK AO2 T02420218
 
KIAB - Mcconnell Afb, Kansas, USA
Distance from station: N 84mi, 135km
Updated: Fri, 06-21-2024 4:55am CDT
Mostly cloudy
Mostly cloudy
 Wind from S
Wind: S 7 mph, 11 km/h
Temperature: 75°F, 24°C
Dew Point: 72°F, 22°C
Humidity: 89%
Barometer: 30.16 inHg, 1021.3 hPa
Clouds: Mostly cloudy
Visibility: 10 miles, 16 km
Cloud details: Mostly cloudy 17000 ft
2024/06/21 09:55 KIAB 210955Z AUTO 18006KT 10SM BKN170 24/22 A3016 RMK AO2 SLP198 T02400215 $
KICT - Wichita, Kansas, USA
Distance from station: NNW 88mi, 142km
Updated: Fri, 06-21-2024 4:53am CDT
Mostly cloudy
Mostly cloudy
 Wind from SSE
Wind: SSE 8 mph, 13 km/h
Temperature: 73°F, 23°C
Dew Point: 72°F, 22°C
Humidity: 94%
Barometer: 30.17 inHg, 1021.7 hPa
Clouds: Mostly cloudy
Visibility: 10 miles, 16 km
Cloud details: Mostly cloudy 12000 ft
Mostly cloudy 25000 ft
2024/06/21 09:53 KICT 210953Z 16007KT 10SM BKN120 BKN250 23/22 A3017 RMK AO2 SLP199 T02330217
KAAO - Wichita/Jabara, Kansas, USA
Distance from station: N 93mi, 149km
Updated: Fri, 06-21-2024 4:54am CDT
Clear
Clear
 Wind from SSE
Wind: SSE 7 mph, 11 km/h
Temperature: 73°F, 23°C
Dew Point: 70°F, 21°C
Humidity: 89%
Barometer: 30.17 inHg, 1021.7 hPa
Clouds: Clear
Visibility: 10 miles, 16 km
2024/06/21 09:54 KAAO 210954Z AUTO 16006KT 10SM CLR 23/21 A3017 RMK AO2 SLP203 T02330211
 
KWLD - Winfield/Arkansa, Kansas, USA
Distance from station: N 52mi, 84km
Updated: Fri, 06-21-2024 4:54am CDT
Clear
Clear
 Wind from SSE
Wind: SSE 7 mph, 11 km/h
Temperature: 75°F, 24°C
Dew Point: 73°F, 23°C
Humidity: 94%
Barometer: 30.18 inHg, 1022 hPa
Clouds: Clear
Visibility: 10 miles, 16 km
2024/06/21 09:54 KWLD 210954Z AUTO 16006KT 10SM CLR 24/23 A3018 RMK AO2 SLP207 T02390228
KAVK - Alva, Oklahoma, USA
Distance from station: WNW 94mi, 152km
Updated: Fri, 06-21-2024 5:15am CDT
Clear
Clear
 Wind from SSE
Wind: SSE 10 mph, 17 km/h
Temperature: 75°F, 24°C
Dew Point: 73°F, 23°C
Humidity: 94%
Barometer: 30.14 inHg, 1020.7 hPa
Clouds: Clear
Visibility: 10 miles, 16 km
2024/06/21 10:15 KAVK 211015Z AUTO 15009KT 10SM CLR 24/23 A3014 RMK AO2
KBVO - Bartlesville, Oklahoma, USA
Distance from station: ENE 61mi, 98km
Updated: Fri, 06-21-2024 4:53am CDT
Overcast
Overcast
 Wind from S
Wind: S 5 mph, 7 km/h
Temperature: 77°F, 25°C
Dew Point: 72°F, 22°C
Humidity: 83%
Barometer: 30.18 inHg, 1022 hPa
Clouds: Overcast
Visibility: 10 miles, 16 km
Cloud details: Overcast 9000 ft
2024/06/21 09:53 KBVO 210953Z AUTO 18004KT 10SM OVC090 25/22 A3018 RMK AO2 SLP209 T02500222
 
KBKN - Blackwell, Oklahoma, USA
Distance from station: NW 29mi, 47km
Updated: Fri, 06-21-2024 5:15am CDT
Mostly cloudy
Mostly cloudy
 Wind from SE
Wind: SE 5 mph, 7 km/h
Temperature: 75°F, 24°C
Dew Point: 73°F, 23°C
Humidity: 94%
Barometer: 30.17 inHg, 1021.7 hPa
Clouds: Mostly cloudy
Cloud details: Mostly cloudy 4700 ft
2024/06/21 10:15 KBKN 211015Z AUTO 14004KT BKN047 24/23 A3017 RMK AO2
KGCM - Claremore, Oklahoma, USA
Distance from station: E 86mi, 138km
Updated: Fri, 06-21-2024 5:15am CDT
Overcast
Overcast
 Wind from calm
Wind: Calm
Temperature: 75°F, 24°C
Dew Point: 75°F, 24°C
Humidity: 100%
Barometer: 30.19 inHg, 1022.4 hPa
Clouds: Overcast
Visibility: 10 miles, 16 km
Cloud details: Mostly cloudy 5500 ft
Overcast 7000 ft
2024/06/21 10:15 KGCM 211015Z AUTO 00000KT 10SM BKN055 OVC070 24/24 A3019 RMK AO2 TSNO
KCQB - Chandler, Oklahoma, USA
Distance from station: SSE 50mi, 80km
Updated: Fri, 06-21-2024 5:20am CDT
Clear
Clear
 Wind from SSE
Wind: SSE 6 mph, 9 km/h
Temperature: 73°F, 23°C
Dew Point: 70°F, 21°C
Humidity: 89%
Barometer: 30.19 inHg, 1022.4 hPa
Clouds: Clear
Visibility: 10 miles, 16 km
2024/06/21 10:20 KCQB 211020Z AUTO 16005KT 10SM CLR 23/21 A3019 RMK AO2 T02300213
 
KCUH - Cushing, Oklahoma, USA
Distance from station: SSE 35mi, 57km
Updated: Fri, 06-21-2024 5:15am CDT
Clear
Clear
 Wind from S
Wind: S 6 mph, 9 km/h
Temperature: 75°F, 24°C
Dew Point: 70°F, 21°C
Humidity: 83%
Barometer: 30.18 inHg, 1022 hPa
Clouds: Clear
Visibility: 10 miles, 16 km
2024/06/21 10:15 KCUH 211015Z AUTO 17005KT 10SM CLR 24/21 A3018 RMK AO2 T02360211
KRQO - El Reno Muni, Oklahoma, USA
Distance from station: SW 85mi, 137km
Updated: Fri, 06-21-2024 5:15am CDT
Mostly cloudy
Mostly cloudy
 Wind from S
Wind: S 10 mph, 17 km/h
Temperature: 73°F, 23°C
Dew Point: 72°F, 22°C
Humidity: 94%
Barometer: 30.19 inHg, 1022.4 hPa
Clouds: Mostly cloudy
Visibility: 10 miles, 16 km
Cloud details: Partly cloudy 3800 ft
Mostly cloudy 4600 ft
2024/06/21 10:15 KRQO 211015Z AUTO 17009KT 10SM SCT038 BKN046 23/22 A3019 RMK AO2 T02330222
KEND - Enid/Vance Afb, Oklahoma, USA
Distance from station: W 50mi, 81km
Updated: Fri, 06-21-2024 4:55am CDT
Partly cloudy
Partly cloudy
 Wind from ESE
Wind: ESE 6 mph, 9 km/h
Temperature: 75°F, 24°C
Dew Point: 72°F, 22°C
Humidity: 89%
Barometer: 30.14 inHg, 1020.7 hPa
Clouds: Partly cloudy
Visibility: 10 miles, 16 km
Cloud details: Partly cloudy 17000 ft
2024/06/21 09:55 KEND 210955Z AUTO 12005KT 10SM SCT170 24/22 A3014 RMK AO2 SLP193 T02430218 $
 
KWDG - Enid/Woodring, Oklahoma, USA
Distance from station: W 42mi, 67km
Updated: Fri, 06-21-2024 5:15am CDT
Clear
Clear
 Wind from NE
Wind: NE 7 mph, 11 km/h
Temperature: 73°F, 23°C
Dew Point: 72°F, 22°C
Humidity: 94%
Barometer: 30.16 inHg, 1021.3 hPa
Clouds: Clear
Visibility: 10 miles, 16 km
2024/06/21 10:15 KWDG 211015Z AUTO 05006KT 10SM CLR 23/22 A3016 RMK AO2
KGOK - Guthrie, Oklahoma, USA
Distance from station: SSW 44mi, 71km
Updated: Fri, 06-21-2024 4:53am CDT
Clear
Clear
 Wind from SSE
Wind: SSE 7 mph, 11 km/h
Temperature: 75°F, 24°C
Dew Point: 72°F, 22°C
Humidity: 89%
Barometer: 30.17 inHg, 1021.7 hPa
Clouds: Clear
Visibility: 10 miles, 16 km
2024/06/21 09:53 KGOK 210953Z AUTO 15006KT 10SM CLR 24/22 A3017 RMK AO2 SLP206 T02440217
KOUN - Norman/Westheime, Oklahoma, USA
Distance from station: SSW 84mi, 136km
Updated: Fri, 06-21-2024 5:15am CDT
Clear
Clear
 Wind from SSE
Wind: SSE 8 mph, 13 km/h
Temperature: 75°F, 24°C
Dew Point: 70°F, 21°C
Humidity: 83%
Barometer: 30.17 inHg, 1021.7 hPa
Clouds: Clear
Visibility: 10 miles, 16 km
2024/06/21 10:15 KOUN 211015Z AUTO 15007KT 10SM CLR 24/21 A3017 RMK AO2 T02410212
 
KOKC - Oklahoma City, Oklahoma, USA
Distance from station: SSW 78mi, 126km
Updated: Fri, 06-21-2024 4:52am CDT
Mostly cloudy
Mostly cloudy
 Wind from SSE
Wind: SSE 9 mph, 15 km/h
Temperature: 73°F, 23°C
Dew Point: 70°F, 21°C
Humidity: 89%
Barometer: 30.17 inHg, 1021.7 hPa
Clouds: Mostly cloudy
Visibility: 10 miles, 16 km
Cloud details: Mostly cloudy 25000 ft
2024/06/21 09:52 KOKC 210952Z 16008KT 10SM BKN250 23/21 A3017 RMK AO2 SLP202 T02330211
KPWA - Okla City/Wiley, Oklahoma, USA
Distance from station: SSW 70mi, 113km
Updated: Fri, 06-21-2024 4:53am CDT
Clear
Clear
 Wind from S
Wind: S 12 mph, 19 km/h
Temperature: 77°F, 25°C
Dew Point: 72°F, 22°C
Humidity: 83%
Barometer: 30.17 inHg, 1021.7 hPa
Clouds: Clear
Visibility: 10 miles, 16 km
2024/06/21 09:53 KPWA 210953Z AUTO 17010KT 10SM CLR 25/22 A3017 RMK AO2 SLP197 T02500217
KRCE - Okla City/Page, Oklahoma, USA
Distance from station: SW 78mi, 126km
Updated: Fri, 06-21-2024 5:15am CDT
Clear
Clear
 Wind from SSE
Wind: SSE 8 mph, 13 km/h
Temperature: 75°F, 24°C
Dew Point: 70°F, 21°C
Humidity: 83%
Barometer: 30.17 inHg, 1021.7 hPa
Clouds: Clear
Visibility: 10 miles, 16 km
2024/06/21 10:15 KRCE 211015Z AUTO 16007KT 10SM CLR 24/21 A3017 RMK AO2 TSNO
 
KOKM - Okmulgee, Oklahoma, USA
Distance from station: SE 79mi, 127km
Updated: Fri, 06-21-2024 5:15am CDT
Mostly cloudy
Mostly cloudy
 Wind from SSE
Wind: SSE 5 mph, 7 km/h
Temperature: 75°F, 24°C
Dew Point: 73°F, 23°C
Humidity: 94%
Barometer: 30.19 inHg, 1022.4 hPa
Clouds: Mostly cloudy
Visibility: 10 miles, 16 km
Cloud details: Mostly cloudy 10000 ft
2024/06/21 10:15 KOKM 211015Z AUTO 15004KT 10SM BKN100 24/23 A3019 RMK AO2 T02420233
KPNC - Ponca City, Oklahoma, USA
Distance from station: N 22mi, 36km
Updated: Tue, 06-18-2024 10:53am CDT
NOT Current
Mostly cloudy
Mostly cloudy
 Wind from S
Wind: S 15 mph, 24 km/h, Gust: 37 mph, 59 km/h
Temperature: 84°F, 29°C
Heat Index: 86°F, 30°C
Dew Point: 66°F, 19°C
Humidity: 55%
Barometer: 29.82 inHg, 1009.8 hPa
Clouds: Mostly cloudy
Visibility: 10 miles, 16 km
Cloud details: Mostly cloudy 4000 ft
2024/06/18 15:53 KPNC 181553Z AUTO 19013G32KT 10SM BKN040 29/19 A2982 RMK AO2 PK WND 19034/1522 SLP084 T02890194 PWINO $
KSNL - Shawnee, Oklahoma, USA
Distance from station: S 74mi, 119km
Updated: Fri, 06-21-2024 5:15am CDT
Clear
Clear
 Wind from SSE
Wind: SSE 9 mph, 15 km/h
Temperature: 75°F, 24°C
Dew Point: 73°F, 23°C
Humidity: 94%
Barometer: 30.18 inHg, 1022 hPa
Clouds: Clear
Visibility: 10 miles, 16 km
2024/06/21 10:15 KSNL 211015Z AUTO 16008KT 10SM CLR 24/23 A3018 RMK AO2 T02420230